Time;durP1;ratioP1;P1;durP2;ratioP2;P2;SDS_P1;SDS_P2;PMS_P1;PMS_P2;Temp;Humidity;BMP_temperature;BMP_pressure;BME280_temperature;BME280_humidity;BME280_pressure;Samples;Min_cycle;Max_cycle;Signal;HPM_P1;HPM_P2
2021/03/21 00:02:00;;;;;;;9.88;5.72;;;5.60;99.90;;;;;;5105807;27;20070;-59
2021/03/21 00:04:26;;;;;;;7.13;5.30;;;5.60;99.90;;;;;;5081600;28;20051;-56
2021/03/21 00:06:51;;;;;;;6.90;5.03;;;5.60;99.90;;;;;;5103284;28;20068;-58
2021/03/21 00:09:17;;;;;;;8.55;6.03;;;5.60;99.90;;;;;;5113692;27;20039;-58
2021/03/21 00:11:42;;;;;;;8.43;5.55;;;5.60;99.90;;;;;;5105131;27;20035;-56
2021/03/21 00:14:08;;;;;;;7.50;5.15;;;5.60;99.90;;;;;;5107557;27;20035;-53
2021/03/21 00:16:35;;;;;;;8.70;5.75;;;5.60;99.90;;;;;;5097282;27;20031;-59
2021/03/21 00:19:03;;;;;;;9.30;5.97;;;5.50;99.90;;;;;;5110748;27;20039;-59
2021/03/21 00:21:28;;;;;;;9.40;5.80;;;5.50;99.90;;;;;;5101717;28;20031;-60
2021/03/21 00:23:54;;;;;;;7.25;4.90;;;5.50;99.90;;;;;;5096239;28;20024;-56
2021/03/21 00:26:20;;;;;;;8.13;5.55;;;5.50;99.90;;;;;;5100394;28;20505;-57
2021/03/21 00:28:46;;;;;;;9.65;5.90;;;5.50;99.90;;;;;;5099242;28;20244;-57
2021/03/21 00:31:14;;;;;;;10.05;5.82;;;5.50;99.90;;;;;;5105579;28;20124;-57
2021/03/21 00:33:41;;;;;;;10.35;6.50;;;5.50;99.90;;;;;;5111104;27;20035;-58
2021/03/21 00:36:11;;;;;;;12.70;7.22;;;5.50;99.90;;;;;;5103240;27;20033;-59
2021/03/21 00:38:46;;;;;;;12.25;7.82;;;5.50;99.90;;;;;;5113675;27;20484;-54
2021/03/21 00:41:16;;;;;;;12.43;7.95;;;5.50;99.90;;;;;;5107895;27;20154;-54
2021/03/21 00:43:42;;;;;;;11.18;7.63;;;5.50;99.90;;;;;;5112742;27;20027;-56
2021/03/21 00:46:09;;;;;;;13.07;8.10;;;5.50;99.90;;;;;;5110906;27;20030;-55
2021/03/21 00:48:40;;;;;;;14.23;8.13;;;5.50;99.90;;;;;;5107160;28;20020;-56
2021/03/21 00:51:08;;;;;;;12.45;7.78;;;5.50;99.90;;;;;;5099325;28;20031;-56
2021/03/21 00:53:34;;;;;;;12.27;7.63;;;5.50;99.90;;;;;;5109364;27;20114;-57
2021/03/21 00:55:59;;;;;;;14.80;9.15;;;5.50;99.90;;;;;;5109852;27;20024;-54
2021/03/21 00:58:25;;;;;;;13.02;9.20;;;5.50;99.90;;;;;;5107167;28;20455;-56
2021/03/21 01:00:54;;;;;;;13.38;8.73;;;5.50;99.90;;;;;;5106948;28;20480;-54
2021/03/21 01:03:20;;;;;;;11.85;8.60;;;5.50;99.90;;;;;;5105995;28;20027;-57
2021/03/21 01:05:54;;;;;;;13.80;8.93;;;5.50;99.90;;;;;;5084133;27;20047;-56
2021/03/21 01:08:24;;;;;;;;;;;5.50;99.90;;;;;;5105034;28;20028;-55
2021/03/21 01:10:53;;;;;;;15.35;9.32;;;5.50;99.90;;;;;;5102807;28;19958;-56
2021/03/21 01:13:19;;;;;;;15.23;9.45;;;5.50;99.90;;;;;;5113164;27;20027;-56
2021/03/21 01:15:45;;;;;;;15.90;10.90;;;5.40;99.90;;;;;;5107438;27;20035;-58
2021/03/21 01:18:19;;;;;;;21.65;11.73;;;5.40;99.90;;;;;;5127887;27;20037;-55
2021/03/21 01:20:45;;;;;;;;;;;5.40;99.90;;;;;;5108314;27;20465;-57
2021/03/21 01:23:11;;;;;;;19.42;12.40;;;5.30;99.90;;;;;;5109651;27;19912;-58
2021/03/21 01:25:37;;;;;;;20.90;13.52;;;5.30;99.90;;;;;;5111281;27;20028;-54
2021/03/21 01:28:03;;;;;;;22.35;14.68;;;5.30;99.90;;;;;;5088479;27;20072;-59
2021/03/21 01:30:29;;;;;;;25.65;15.48;;;5.20;99.90;;;;;;5110526;28;20414;-59
2021/03/21 01:32:55;;;;;;;24.45;15.20;;;5.20;99.90;;;;;;5096873;27;20023;-54
2021/03/21 01:35:21;;;;;;;27.27;17.27;;;5.20;99.90;;;;;;5111174;27;20076;-55
2021/03/21 01:37:47;;;;;;;25.50;16.88;;;5.20;99.90;;;;;;5111206;28;20388;-55
2021/03/21 01:40:17;;;;;;;26.58;17.67;;;5.20;99.90;;;;;;5109403;28;20036;-58
2021/03/21 01:42:45;;;;;;;27.20;17.58;;;5.20;99.90;;;;;;5117513;27;20102;-60
2021/03/21 01:45:55;;;;;;;26.50;17.23;;;5.20;99.90;;;;;;5115158;27;20447;-57
2021/03/21 01:48:33;;;;;;;27.45;17.50;;;5.10;99.90;;;;;;5108458;27;20510;-57
2021/03/21 01:51:05;;;;;;;29.88;18.00;;;5.00;99.90;;;;;;5108350;28;20370;-58
2021/03/21 01:53:33;;;;;;;32.03;20.27;;;5.00;99.90;;;;;;5117381;27;20494;-57
2021/03/21 01:56:00;;;;;;;33.90;21.30;;;5.00;99.90;;;;;;5112214;27;20388;-58
2021/03/21 01:58:28;;;;;;;37.55;23.58;;;5.00;99.90;;;;;;5114562;27;20039;-56
2021/03/21 02:00:57;;;;;;;38.83;22.42;;;5.00;99.90;;;;;;5113514;27;20027;-58
2021/03/21 02:03:23;;;;;;;36.22;22.85;;;5.00;99.90;;;;;;5112678;28;20411;-55
2021/03/21 02:05:53;;;;;;;38.85;23.48;;;5.00;99.90;;;;;;5091346;27;20138;-57
2021/03/21 02:08:31;;;;;;;38.75;22.67;;;5.00;99.90;;;;;;5116307;27;20016;-58
2021/03/21 02:11:04;;;;;;;42.70;23.45;;;5.00;99.90;;;;;;5115337;27;20030;-57
2021/03/21 02:13:59;;;;;;;42.25;24.35;;;5.00;99.90;;;;;;5115526;27;20024;-56
2021/03/21 02:16:34;;;;;;;42.28;24.38;;;5.00;99.90;;;;;;5112844;27;20057;-57
2021/03/21 02:19:33;;;;;;;40.60;24.67;;;5.00;99.90;;;;;;5114875;27;20055;-56
2021/03/21 02:22:06;;;;;;;40.95;24.83;;;4.90;99.90;;;;;;5108646;27;20031;-57
2021/03/21 02:24:51;;;;;;;41.70;25.52;;;4.90;99.90;;;;;;5113879;27;20019;-58
2021/03/21 02:27:40;;;;;;;45.13;27.05;;;4.90;99.90;;;;;;5110988;27;20020;-56
2021/03/21 02:30:13;;;;;;;43.85;25.35;;;4.90;99.90;;;;;;5111179;27;20570;-57
2021/03/21 02:33:03;;;;;;;41.60;26.10;;;4.80;99.90;;;;;;5112067;28;20488;-53
2021/03/21 02:35:37;;;;;;;46.53;27.20;;;4.80;99.90;;;;;;5116098;27;20020;-54
2021/03/21 02:38:16;;;;;;;;;;;4.80;99.90;;;;;;5110724;27;20046;-57
2021/03/21 02:40:49;;;;;;;41.40;25.15;;;4.80;99.90;;;;;;5109024;27;20464;-57
2021/03/21 02:43:27;;;;;;;43.15;25.13;;;4.80;99.90;;;;;;5113154;27;20019;-54
2021/03/21 02:45:57;;;;;;;41.65;25.67;;;4.80;99.90;;;;;;5108949;27;20027;-59
2021/03/21 02:48:39;;;;;;;40.72;24.13;;;4.80;99.90;;;;;;5109000;28;20016;-57
2021/03/21 02:51:11;;;;;;;39.92;25.10;;;4.80;99.90;;;;;;5108174;28;20027;-54
2021/03/21 02:53:46;;;;;;;42.47;25.05;;;4.80;99.90;;;;;;5114687;27;20447;-55
2021/03/21 02:56:18;;;;;;;40.75;24.88;;;4.80;99.90;;;;;;5109119;27;20062;-59
2021/03/21 02:58:49;;;;;;;39.97;22.20;;;4.80;99.90;;;;;;5125732;27;20032;-58
2021/03/21 03:01:23;;;;;;;40.03;22.70;;;4.80;99.90;;;;;;5113463;28;20114;-60
2021/03/21 03:03:51;;;;;;;41.10;23.10;;;4.80;99.90;;;;;;5103921;28;20016;-54
2021/03/21 03:06:31;;;;;;;40.40;24.55;;;4.80;99.90;;;;;;5097560;27;20047;-57
2021/03/21 03:09:07;;;;;;;41.00;23.92;;;4.80;99.90;;;;;;5104253;27;20035;-57
2021/03/21 03:11:40;;;;;;;41.05;23.98;;;4.80;99.90;;;;;;5089751;27;20051;-56
2021/03/21 03:14:11;;;;;;;40.75;24.08;;;4.80;99.90;;;;;;5116959;27;20015;-55
2021/03/21 03:16:40;;;;;;;40.53;23.27;;;4.80;99.90;;;;;;5113027;27;20114;-59
2021/03/21 03:19:33;;;;;;;40.75;24.25;;;4.70;99.90;;;;;;5107447;28;20671;-58
2021/03/21 03:22:23;;;;;;;37.88;23.40;;;4.80;99.90;;;;;;5107191;27;20032;-57
2021/03/21 03:25:12;;;;;;;35.90;23.17;;;4.80;99.90;;;;;;5107550;27;20435;-55
2021/03/21 03:27:44;;;;;;;38.35;21.88;;;4.80;99.90;;;;;;5115952;27;20128;-58
2021/03/21 03:30:20;;;;;;;40.42;24.17;;;4.70;99.90;;;;;;5109085;27;20435;-56
2021/03/21 03:32:48;;;;;;;43.45;23.58;;;4.80;99.90;;;;;;5104240;27;20030;-57
2021/03/21 03:35:18;;;;;;;34.50;22.10;;;4.80;99.90;;;;;;5092123;27;20031;-55
2021/03/21 03:37:44;;;;;;;43.83;24.58;;;4.70;99.90;;;;;;5105305;28;20047;-57
2021/03/21 03:40:11;;;;;;;39.45;22.98;;;4.70;99.90;;;;;;5116391;27;20651;-55
2021/03/21 03:43:03;;;;;;;41.00;23.80;;;4.70;99.90;;;;;;5088801;28;20024;-56
2021/03/21 03:45:47;;;;;;;41.28;23.73;;;4.70;99.90;;;;;;5101829;27;20070;-57
2021/03/21 03:48:33;;;;;;;42.15;25.40;;;4.80;99.90;;;;;;5090855;28;20021;-58
2021/03/21 03:51:30;;;;;;;41.38;23.90;;;4.70;99.90;;;;;;5110801;27;20115;-55
2021/03/21 03:54:18;;;;;;;40.92;24.38;;;4.80;99.90;;;;;;5093868;27;20114;-57
2021/03/21 03:57:08;;;;;;;38.65;23.83;;;4.70;99.90;;;;;;5108055;27;20039;-57
2021/03/21 03:59:50;;;;;;;41.55;25.92;;;4.80;99.90;;;;;;5105870;28;20024;-56
2021/03/21 04:02:23;;;;;;;43.92;24.65;;;4.70;99.90;;;;;;5100364;27;20024;-55
2021/03/21 04:04:57;;;;;;;42.33;25.38;;;4.70;99.90;;;;;;5099113;27;20027;-55
2021/03/21 04:08:08;;;;;;;41.38;24.70;;;4.70;99.90;;;;;;5089410;27;20047;-57
2021/03/21 04:10:44;;;;;;;41.90;23.65;;;4.70;99.90;;;;;;5101804;27;20165;-56
2021/03/21 04:13:22;;;;;;;40.65;24.38;;;4.70;99.90;;;;;;5110674;27;20031;-53
2021/03/21 04:15:53;;;;;;;37.65;23.15;;;4.70;99.90;;;;;;5104339;27;20524;-55
2021/03/21 04:18:35;;;;;;;35.50;22.13;;;4.70;99.90;;;;;;5101042;28;20045;-58
2021/03/21 04:21:24;;;;;;;38.03;22.77;;;4.70;99.90;;;;;;5108174;27;20042;-57
2021/03/21 04:23:52;;;;;;;33.28;20.60;;;4.70;99.90;;;;;;5108087;27;20126;-54
2021/03/21 04:26:40;;;;;;;33.30;21.60;;;4.70;99.90;;;;;;5113095;27;20038;-57
2021/03/21 04:29:18;;;;;;;31.42;18.88;;;4.70;99.90;;;;;;5091469;27;20055;-55
2021/03/21 04:31:45;;;;;;;33.63;18.70;;;4.70;99.90;;;;;;5112513;27;20023;-55
2021/03/21 04:34:13;;;;;;;33.20;20.23;;;4.70;99.90;;;;;;5093781;27;20536;-53
2021/03/21 04:36:42;;;;;;;32.75;17.70;;;4.70;99.90;;;;;;5105021;27;20117;-56
2021/03/21 04:39:12;;;;;;;28.02;17.67;;;4.60;99.90;;;;;;5103125;28;20100;-56
2021/03/21 04:41:52;;;;;;;33.78;19.20;;;4.70;99.90;;;;;;5111286;28;20049;-54
2021/03/21 04:44:44;;;;;;;34.33;19.80;;;4.60;99.90;;;;;;5107271;27;20384;-58
2021/03/21 04:47:18;;;;;;;34.00;20.05;;;4.60;99.90;;;;;;5091203;28;20536;-56
2021/03/21 04:49:44;;;;;;;38.75;21.58;;;4.70;99.90;;;;;;5104627;27;20031;-59
2021/03/21 04:52:33;;;;;;;39.00;21.73;;;4.70;99.90;;;;;;5106857;28;20028;-56
2021/03/21 04:55:00;;;;;;;40.05;20.20;;;4.70;99.90;;;;;;5108560;27;20102;-57
2021/03/21 04:57:35;;;;;;;34.58;20.55;;;4.70;99.90;;;;;;5092509;28;20620;-55
2021/03/21 05:00:06;;;;;;;35.72;20.10;;;4.60;99.90;;;;;;5101224;27;20059;-58
2021/03/21 05:02:33;;;;;;;33.72;21.17;;;4.60;99.90;;;;;;5099448;27;20052;-57
2021/03/21 05:05:04;;;;;;;38.60;19.75;;;4.60;99.90;;;;;;5103362;28;20019;-57
2021/03/21 05:07:42;;;;;;;31.05;19.25;;;4.60;99.90;;;;;;5083711;28;20069;-56
2021/03/21 05:10:38;;;;;;;37.38;20.40;;;4.60;99.90;;;;;;5093921;28;20019;-53
2021/03/21 05:13:13;;;;;;;31.33;19.35;;;4.60;99.90;;;;;;5118595;27;20425;-54
2021/03/21 05:15:54;;;;;;;32.38;18.40;;;4.60;99.90;;;;;;5099188;28;20039;-54
2021/03/21 05:18:50;;;;;;;28.65;15.40;;;4.60;99.90;;;;;;5110196;28;20551;-53
2021/03/21 05:21:33;;;;;;;27.48;16.05;;;4.60;99.90;;;;;;5108609;28;20445;-53
2021/03/21 05:24:21;;;;;;;25.92;15.00;;;4.60;99.90;;;;;;5111127;28;20019;-57
2021/03/21 05:26:52;;;;;;;26.92;15.85;;;4.60;99.90;;;;;;5103128;28;20046;-59
2021/03/21 05:29:41;;;;;;;27.55;14.55;;;4.60;99.90;;;;;;5112285;27;20134;-59
2021/03/21 05:32:08;;;;;;;27.10;15.57;;;4.60;99.90;;;;;;5087591;28;20040;-54
2021/03/21 05:34:33;;;;;;;27.10;15.02;;;4.60;99.90;;;;;;5101615;28;20032;-55
2021/03/21 05:37:25;;;;;;;25.77;15.43;;;4.60;99.90;;;;;;5102281;28;20031;-56
2021/03/21 05:40:27;;;;;;;27.83;15.60;;;4.60;99.90;;;;;;5093759;28;20019;-57
2021/03/21 05:43:24;;;;;;;29.40;15.85;;;4.60;99.90;;;;;;5103190;28;20062;-58
2021/03/21 05:46:27;;;;;;;28.58;14.80;;;4.60;99.90;;;;;;5104080;28;20106;-57
2021/03/21 05:49:10;;;;;;;25.95;13.82;;;4.60;99.90;;;;;;5083741;28;20024;-57
2021/03/21 05:52:19;;;;;;;28.55;16.65;;;4.60;99.90;;;;;;5103577;28;20548;-54
2021/03/21 05:55:28;;;;;;;25.25;15.18;;;4.60;99.90;;;;;;5090210;28;20161;-60
2021/03/21 05:58:07;;;;;;;28.75;14.88;;;4.70;99.90;;;;;;5101892;28;20020;-59
2021/03/21 06:00:57;;;;;;;26.27;15.50;;;4.70;99.90;;;;;;5100443;27;20040;-55
2021/03/21 06:03:42;;;;;;;26.00;15.48;;;4.70;99.90;;;;;;5103952;27;20170;-56
2021/03/21 06:06:32;;;;;;;33.00;16.50;;;4.70;99.90;;;;;;5080128;28;20044;-55
2021/03/21 06:09:44;;;;;;;28.40;15.82;;;4.70;99.90;;;;;;5106979;27;20020;-53
2021/03/21 06:12:31;;;;;;;24.90;13.80;;;4.70;99.90;;;;;;5095551;27;21567;-57
2021/03/21 06:15:13;;;;;;;23.98;13.55;;;4.70;99.90;;;;;;5120832;27;20031;-57
2021/03/21 06:17:48;;;;;;;21.42;11.23;;;4.70;99.90;;;;;;5103736;28;20507;-57
2021/03/21 06:20:26;;;;;;;25.27;13.90;;;4.70;99.90;;;;;;5101540;28;20036;-57
2021/03/21 06:23:14;;;;;;;27.77;13.43;;;4.70;99.90;;;;;;5107052;27;20030;-56
2021/03/21 06:25:52;;;;;;;21.33;11.95;;;4.70;99.90;;;;;;5097879;27;20061;-56
2021/03/21 06:28:56;;;;;;;26.10;12.00;;;4.80;99.90;;;;;;5106572;27;20031;-56
2021/03/21 06:32:02;;;;;;;24.88;12.77;;;4.80;99.90;;;;;;5071070;28;20078;-57
2021/03/21 06:34:48;;;;;;;21.90;12.32;;;4.80;99.90;;;;;;5089363;28;20067;-55
2021/03/21 06:37:33;;;;;;;24.25;12.73;;;4.80;99.90;;;;;;5093774;27;20060;-54
2021/03/21 06:40:09;;;;;;;24.50;12.50;;;4.90;99.90;;;;;;5104409;28;20064;-57
2021/03/21 06:43:03;;;;;;;25.67;13.18;;;4.90;99.90;;;;;;5118744;27;20034;-56
2021/03/21 06:46:05;;;;;;;25.38;12.95;;;4.90;99.90;;;;;;5107477;27;20447;-57
2021/03/21 06:48:31;;;;;;;24.27;13.85;;;4.90;99.90;;;;;;5100576;27;20020;-58
2021/03/21 06:51:21;;;;;;;24.05;14.00;;;4.90;99.90;;;;;;5116943;27;20411;-56
2021/03/21 06:54:12;;;;;;;26.27;14.95;;;4.90;99.90;;;;;;5102390;28;20028;-56
2021/03/21 06:57:06;;;;;;;29.60;17.10;;;5.00;99.90;;;;;;5110789;27;20504;-57
2021/03/21 06:59:40;;;;;;;30.88;16.58;;;5.00;99.90;;;;;;5103463;28;20032;-55
2021/03/21 07:02:11;;;;;;;32.55;19.27;;;5.00;99.90;;;;;;5110712;27;20077;-55
2021/03/21 07:05:18;;;;;;;34.05;19.48;;;5.00;99.90;;;;;;5111025;27;20053;-55
2021/03/21 07:07:43;;;;;;;34.05;20.25;;;5.00;99.90;;;;;;5040867;28;20068;-56
2021/03/21 07:10:15;;;;;;;34.03;20.73;;;5.10;99.90;;;;;;5069289;28;20071;-58
2021/03/21 07:12:40;;;;;;;34.58;21.10;;;5.10;99.90;;;;;;5078545;27;20043;-55
2021/03/21 07:15:33;;;;;;;33.40;18.95;;;5.10;99.90;;;;;;5115508;27;20464;-57
2021/03/21 07:18:30;;;;;;;33.00;18.92;;;5.20;99.90;;;;;;5104887;27;20020;-52
2021/03/21 07:20:59;;;;;;;33.47;18.50;;;5.20;99.90;;;;;;5105263;28;20044;-54
2021/03/21 07:24:19;;;;;;;32.63;18.55;;;5.20;99.90;;;;;;5096640;27;20027;-56
2021/03/21 07:26:57;;;;;;;30.08;16.70;;;5.20;99.90;;;;;;5083230;28;20027;-55
2021/03/21 07:29:47;;;;;;;26.10;16.05;;;5.30;99.90;;;;;;5096246;27;20015;-54
2021/03/21 07:32:48;;;;;;;26.85;15.98;;;5.40;99.90;;;;;;5109706;27;20489;-54
2021/03/21 07:35:13;;;;;;;27.02;14.05;;;5.40;99.90;;;;;;5113689;27;20503;-56
2021/03/21 07:37:48;;;;;;;23.73;13.57;;;5.30;99.90;;;;;;5109259;27;20110;-56
2021/03/21 07:40:33;;;;;;;22.05;12.65;;;5.40;99.90;;;;;;5077715;28;20460;-57
2021/03/21 07:43:15;;;;;;;18.85;11.50;;;5.40;99.90;;;;;;5107152;27;20019;-57
2021/03/21 07:46:03;;;;;;;22.38;12.73;;;5.40;99.90;;;;;;5099665;27;20112;-56
2021/03/21 07:48:50;;;;;;;20.02;12.85;;;5.40;99.90;;;;;;5102002;28;20098;-57
2021/03/21 07:51:53;;;;;;;20.55;12.23;;;5.50;99.90;;;;;;5095008;27;20027;-55
2021/03/21 07:54:38;;;;;;;20.27;12.85;;;5.70;99.90;;;;;;5112658;27;20012;-57
2021/03/21 07:57:21;;;;;;;22.42;13.65;;;5.80;99.90;;;;;;5108488;27;20536;-59
2021/03/21 07:59:48;;;;;;;22.48;13.95;;;5.90;99.90;;;;;;5095492;28;20054;-57
2021/03/21 08:02:22;;;;;;;18.90;13.77;;;6.00;99.90;;;;;;5107431;27;20050;-54
2021/03/21 08:04:48;;;;;;;21.80;14.27;;;6.20;99.90;;;;;;5112164;27;20028;-58
2021/03/21 08:07:26;;;;;;;24.70;15.15;;;6.20;99.90;;;;;;5096394;27;20404;-56
2021/03/21 08:09:51;;;;;;;19.13;13.90;;;6.20;99.90;;;;;;5102852;27;20550;-54
2021/03/21 08:12:20;;;;;;;22.13;15.38;;;6.20;99.90;;;;;;5114887;27;20024;-55
2021/03/21 08:14:49;;;;;;;25.27;16.25;;;6.10;99.90;;;;;;5111507;27;20019;-57
2021/03/21 08:17:29;;;;;;;31.58;16.75;;;6.20;99.90;;;;;;5103274;27;20129;-56
2021/03/21 08:20:02;;;;;;;30.27;17.73;;;6.10;99.90;;;;;;5104521;27;20138;-59
2021/03/21 08:22:30;;;;;;;28.42;17.50;;;6.00;99.90;;;;;;5104968;27;20094;-55
2021/03/21 08:24:59;;;;;;;25.73;16.98;;;5.90;99.90;;;;;;5106783;27;20032;-56
2021/03/21 08:27:29;;;;;;;25.25;17.15;;;5.90;99.90;;;;;;5107034;27;20024;-56
2021/03/21 08:30:05;;;;;;;29.15;18.15;;;6.00;99.90;;;;;;5107465;27;20031;-55
2021/03/21 08:32:33;;;;;;;33.28;19.00;;;5.90;99.90;;;;;;5110550;27;20031;-57
2021/03/21 08:35:16;;;;;;;28.65;18.48;;;6.00;99.90;;;;;;5106240;27;20031;-57
2021/03/21 08:37:46;;;;;;;26.05;18.02;;;6.00;99.90;;;;;;5102332;28;20027;-55
2021/03/21 08:40:45;;;;;;;30.98;18.55;;;5.90;99.90;;;;;;5104067;28;20035;-54
2021/03/21 08:43:21;;;;;;;28.52;17.52;;;6.00;99.90;;;;;;5099118;27;20066;-57
2021/03/21 08:45:56;;;;;;;31.23;18.48;;;6.00;99.90;;;;;;5103942;27;20030;-57
2021/03/21 08:48:31;;;;;;;29.23;17.67;;;6.00;99.90;;;;;;5104567;27;20103;-57
2021/03/21 08:51:04;;;;;;;30.10;18.80;;;6.00;99.90;;;;;;5097240;27;20032;-56
2021/03/21 08:53:51;;;;;;;27.13;16.97;;;6.10;99.90;;;;;;5101822;28;20024;-57
2021/03/21 08:56:25;;;;;;;28.00;17.02;;;6.10;99.90;;;;;;5090567;28;20027;-58
2021/03/21 08:59:12;;;;;;;26.98;16.08;;;6.20;99.90;;;;;;5098645;28;20032;-57
2021/03/21 09:01:38;;;;;;;28.48;16.02;;;6.30;99.90;;;;;;5109143;27;20029;-55
2021/03/21 09:04:16;;;;;;;27.10;17.10;;;6.20;99.90;;;;;;5102189;28;20081;-58
2021/03/21 09:06:44;;;;;;;24.83;16.10;;;6.10;99.90;;;;;;5093109;27;20101;-55
2021/03/21 09:09:26;;;;;;;30.25;16.73;;;6.20;99.90;;;;;;5111970;27;20015;-57
2021/03/21 09:12:17;;;;;;;26.25;15.45;;;6.30;99.90;;;;;;5101880;28;20035;-55
2021/03/21 09:14:42;;;;;;;22.08;14.65;;;6.50;99.90;;;;;;5110938;28;20056;-54
2021/03/21 09:17:37;;;;;;;20.90;12.57;;;6.60;99.90;;;;;;5104498;28;20489;-53
2021/03/21 09:20:06;;;;;;;18.20;12.13;;;6.70;99.90;;;;;;5089354;28;20036;-53
2021/03/21 09:22:35;;;;;;;13.88;8.93;;;6.90;99.90;;;;;;5102060;28;20074;-55
2021/03/21 09:25:11;;;;;;;16.40;9.88;;;7.00;99.90;;;;;;5107057;28;20011;-58
2021/03/21 09:27:39;;;;;;;15.10;9.02;;;7.20;99.90;;;;;;5092707;28;20040;-56
2021/03/21 09:30:19;;;;;;;12.10;8.10;;;7.30;99.90;;;;;;5107378;28;20015;-56
2021/03/21 09:32:49;;;;;;;13.70;7.93;;;7.50;99.90;;;;;;5111597;28;20020;-56
2021/03/21 09:35:32;;;;;;;9.77;7.10;;;7.50;99.90;;;;;;5110327;27;20023;-56
2021/03/21 09:38:04;;;;;;;12.95;8.20;;;7.30;99.90;;;;;;5101616;28;20035;-54
2021/03/21 09:40:37;;;;;;;14.45;8.63;;;7.30;99.90;;;;;;5094082;28;20171;-59
2021/03/21 09:43:07;;;;;;;11.00;6.93;;;7.40;99.90;;;;;;5106903;27;20162;-56
2021/03/21 09:45:33;;;;;;;10.45;7.63;;;7.50;99.90;;;;;;5109107;27;20103;-59
2021/03/21 09:48:04;;;;;;;9.52;6.63;;;7.60;99.90;;;;;;5111614;27;20581;-57
2021/03/21 09:50:46;;;;;;;14.63;6.80;;;7.60;99.90;;;;;;5103219;28;20062;-58
2021/03/21 09:53:23;;;;;;;9.07;6.25;;;7.30;99.90;;;;;;5110257;27;20098;-58
2021/03/21 09:55:52;;;;;;;9.50;5.70;;;7.40;99.90;;;;;;5102346;27;20080;-58
2021/03/21 09:58:33;;;;;;;10.82;6.55;;;7.30;99.90;;;;;;5086231;27;20035;-55
2021/03/21 10:01:06;;;;;;;11.45;5.35;;;7.30;99.90;;;;;;5091530;27;20709;-57
2021/03/21 10:03:34;;;;;;;9.60;6.05;;;7.30;99.90;;;;;;5108295;27;20051;-58
2021/03/21 10:06:08;;;;;;;8.80;6.50;;;7.20;99.90;;;;;;5115532;27;20019;-55
2021/03/21 10:08:39;;;;;;;11.50;7.97;;;7.30;99.90;;;;;;5098915;27;20074;-58
2021/03/21 10:11:08;;;;;;;11.18;8.43;;;7.40;99.90;;;;;;5111015;27;20047;-57
2021/03/21 10:13:40;;;;;;;16.58;11.20;;;7.40;99.90;;;;;;5099257;27;20397;-56
2021/03/21 10:16:24;;;;;;;18.40;11.55;;;7.30;99.90;;;;;;5102840;28;20028;-57
2021/03/21 10:18:55;;;;;;;15.82;11.30;;;7.10;99.90;;;;;;5096423;28;20050;-58
2021/03/21 10:21:23;;;;;;;18.02;10.48;;;7.00;99.90;;;;;;5110911;28;20027;-59
2021/03/21 10:23:49;;;;;;;14.52;6.47;;;6.90;99.90;;;;;;5114469;28;20024;-60
2021/03/21 10:26:17;;;;;;;7.95;4.43;;;6.90;99.90;;;;;;5099607;28;20075;-57
2021/03/21 10:28:49;;;;;;;9.95;3.65;;;6.90;99.90;;;;;;5109153;28;20012;-53
2021/03/21 10:31:24;;;;;;;9.30;4.07;;;6.70;99.90;;;;;;5115535;27;20023;-56
2021/03/21 10:33:55;;;;;;;10.15;4.63;;;6.80;99.90;;;;;;5102417;28;20443;-56
2021/03/21 10:36:39;;;;;;;10.93;3.60;;;7.10;99.90;;;;;;5107821;28;20042;-57
2021/03/21 10:39:23;;;;;;;8.73;2.88;;;7.40;99.90;;;;;;5105528;28;20104;-55
2021/03/21 10:42:09;;;;;;;17.90;5.60;;;7.50;99.90;;;;;;5115553;27;20063;-58
2021/03/21 10:44:35;;;;;;;16.10;4.22;;;7.60;99.90;;;;;;5104321;27;20023;-56
2021/03/21 10:47:08;;;;;;;14.35;3.17;;;7.80;99.90;;;;;;5102714;27;20137;-58
2021/03/21 10:49:45;;;;;;;12.17;2.17;;;8.00;99.90;;;;;;5110723;28;20393;-55
2021/03/21 10:52:32;;;;;;;11.45;2.75;;;8.10;99.90;;;;;;5104751;27;20049;-58
2021/03/21 10:55:13;;;;;;;11.68;3.28;;;7.90;99.90;;;;;;5098118;28;20559;-58
2021/03/21 10:57:44;;;;;;;18.17;4.32;;;7.80;99.90;;;;;;5105213;27;20036;-61
2021/03/21 11:00:18;;;;;;;12.20;3.78;;;7.70;99.90;;;;;;5082196;28;20043;-57
2021/03/21 11:02:48;;;;;;;12.15;4.40;;;7.60;99.90;;;;;;5102062;28;20501;-57
2021/03/21 11:05:34;;;;;;;9.18;2.10;;;7.70;99.90;;;;;;5091816;28;20055;-56
2021/03/21 11:08:13;;;;;;;13.50;2.42;;;7.60;99.90;;;;;;5080688;28;20036;-59
2021/03/21 11:11:13;;;;;;;14.27;2.63;;;7.70;99.90;;;;;;5101791;27;20449;-55
2021/03/21 11:13:39;;;;;;;14.18;3.33;;;7.60;99.90;;;;;;5101021;28;20031;-58
2021/03/21 11:16:14;;;;;;;19.25;4.50;;;7.80;99.90;;;;;;5087226;27;20102;-58
2021/03/21 11:18:41;;;;;;;18.13;2.63;;;8.00;99.90;;;;;;5096792;28;20592;-57
2021/03/21 11:21:15;;;;;;;20.80;3.55;;;7.90;99.90;;;;;;5098966;27;20074;-57
2021/03/21 11:23:53;;;;;;;16.95;2.95;;;7.90;99.90;;;;;;5096610;27;20156;-56
2021/03/21 11:26:24;;;;;;;15.50;3.42;;;7.60;99.90;;;;;;5095277;28;20032;-60
2021/03/21 11:29:05;;;;;;;17.67;3.78;;;7.60;99.90;;;;;;5104573;28;20087;-56
2021/03/21 11:31:47;;;;;;;14.23;3.05;;;7.40;99.90;;;;;;5099533;28;20035;-58
2021/03/21 11:34:33;;;;;;;19.30;3.22;;;7.40;99.90;;;;;;5090830;27;20031;-59
2021/03/21 11:37:02;;;;;;;18.92;3.42;;;7.70;99.90;;;;;;5104238;27;20055;-58
2021/03/21 11:39:41;;;;;;;13.63;2.58;;;7.80;99.90;;;;;;5093790;27;20043;-58
2021/03/21 11:42:18;;;;;;;17.90;3.92;;;7.90;99.90;;;;;;5103243;27;20040;-59
2021/03/21 11:44:44;;;;;;;20.60;4.47;;;7.90;99.90;;;;;;5094786;28;20023;-52
2021/03/21 11:47:14;;;;;;;15.23;3.80;;;7.90;99.90;;;;;;5107918;27;20027;-57
2021/03/21 11:49:41;;;;;;;15.35;3.50;;;8.00;99.90;;;;;;5105024;27;20079;-57
2021/03/21 11:52:08;;;;;;;19.80;3.85;;;7.90;99.90;;;;;;5099071;28;20031;-56
2021/03/21 11:54:36;;;;;;;15.48;3.63;;;8.20;99.90;;;;;;5101221;27;20055;-57
2021/03/21 11:57:27;;;;;;;16.50;3.63;;;8.30;99.90;;;;;;5089747;27;20405;-58
2021/03/21 12:00:00;;;;;;;22.00;7.03;;;8.70;99.90;;;;;;5066371;28;20412;-54
2021/03/21 12:03:09;;;;;;;17.50;3.80;;;8.90;99.90;;;;;;5092861;28;20035;-54
2021/03/21 12:05:38;;;;;;;15.13;4.00;;;8.40;99.90;;;;;;5091275;28;20051;-59
2021/03/21 12:08:12;;;;;;;18.90;4.38;;;8.20;99.90;;;;;;5070258;27;20032;-59
2021/03/21 12:10:40;;;;;;;17.65;4.07;;;8.20;99.90;;;;;;5094579;28;20035;-58
2021/03/21 12:13:30;;;;;;;18.55;3.45;;;8.20;99.90;;;;;;5093992;28;20024;-59
2021/03/21 12:15:57;;;;;;;24.90;4.13;;;8.30;99.90;;;;;;5093749;28;20438;-56
2021/03/21 12:18:27;;;;;;;19.15;4.43;;;8.50;99.90;;;;;;5098173;27;20042;-59
2021/03/21 12:21:14;;;;;;;18.75;4.00;;;8.70;99.90;;;;;;5103648;27;20214;-57
2021/03/21 12:23:41;;;;;;;23.48;4.05;;;8.80;99.90;;;;;;5097211;27;20011;-58
2021/03/21 12:26:15;;;;;;;24.75;5.30;;;8.90;99.90;;;;;;5104010;27;20016;-56
2021/03/21 12:29:02;;;;;;;25.58;4.13;;;8.90;99.90;;;;;;5106120;28;20076;-57
2021/03/21 12:31:32;;;;;;;25.35;3.58;;;9.20;99.90;;;;;;5106040;28;20084;-56
2021/03/21 12:33:58;;;;;;;21.15;3.92;;;9.10;99.90;;;;;;5106732;27;20016;-54
2021/03/21 12:36:29;;;;;;;19.83;5.57;;;9.20;99.90;;;;;;5094645;27;20106;-56
2021/03/21 12:39:19;;;;;;;22.17;4.20;;;9.20;99.90;;;;;;5107121;28;20027;-57
2021/03/21 12:41:45;;;;;;;22.42;4.00;;;9.10;99.90;;;;;;5114868;27;20028;-58
2021/03/21 12:44:30;;;;;;;20.02;3.38;;;9.20;99.90;;;;;;5113400;28;20027;-57
2021/03/21 12:47:01;;;;;;;23.52;5.20;;;9.20;99.90;;;;;;5098113;27;20023;-52
2021/03/21 12:49:43;;;;;;;24.23;5.60;;;9.00;99.90;;;;;;5112576;27;20511;-57
2021/03/21 12:52:15;;;;;;;29.33;5.70;;;9.00;99.90;;;;;;5112219;27;20020;-54
2021/03/21 12:54:45;;;;;;;18.13;3.90;;;9.00;99.90;;;;;;5101374;28;20038;-57
2021/03/21 12:57:14;;;;;;;22.33;4.90;;;9.00;99.90;;;;;;5106575;27;20619;-53
2021/03/21 12:59:45;;;;;;;26.75;5.90;;;9.00;99.90;;;;;;5075892;28;20058;-56
2021/03/21 13:02:40;;;;;;;36.25;6.95;;;8.70;99.90;;;;;;5109492;27;20023;-60
2021/03/21 13:05:18;;;;;;;31.77;7.38;;;8.60;99.90;;;;;;5097600;28;20048;-56
2021/03/21 13:07:44;;;;;;;34.65;6.78;;;8.70;99.90;;;;;;5090169;28;20076;-55
2021/03/21 13:10:10;;;;;;;22.55;6.68;;;9.00;99.90;;;;;;5093343;27;20035;-55
2021/03/21 13:12:36;;;;;;;27.98;6.63;;;9.00;99.90;;;;;;5106408;28;20032;-57
2021/03/21 13:15:01;;;;;;;24.92;6.00;;;9.00;99.90;;;;;;5109587;28;20037;-57
2021/03/21 13:17:27;;;;;;;31.10;7.13;;;9.10;99.90;;;;;;5098631;28;20032;-57
2021/03/21 13:19:52;;;;;;;25.35;6.30;;;8.90;99.90;;;;;;5105482;28;20397;-57
2021/03/21 13:22:18;;;;;;;29.33;6.35;;;8.90;99.90;;;;;;5092187;28;20462;-59
2021/03/21 13:24:43;;;;;;;24.55;5.93;;;8.70;99.90;;;;;;5108487;28;20053;-54
2021/03/21 13:27:09;;;;;;;30.67;5.60;;;8.60;99.90;;;;;;5107673;28;20024;-57
2021/03/21 13:29:35;;;;;;;34.17;6.05;;;8.60;99.90;;;;;;5108152;28;20103;-57
2021/03/21 13:32:01;;;;;;;24.35;5.60;;;8.60;99.90;;;;;;5104933;28;20130;-56